SANE/SDE METAR and TAF weather

Enter ICAO airport designator
Station Type Date Time Source
SANE METAR 2020/02/15 10:25 UTC NOAA

SANE 151025Z 27003KT 8000 BR BKN060 24/23 Q1008


Station Type Date Time Source
SANE Decoded METAR 2020/02/15 10:25 UTC NOAA

Santiago Del Estero Aero., Argentina (SANE) 27-46S 064-18W 199M
Feb 15, 2020 - 05:25 AM EST / 2020.02.15 1025 UTC
Wind: from the W (270 degrees) at 3 MPH (3 KT):0
Visibility: 4 mile(s):0
Sky conditions: mostly cloudy
Weather: mist
Temperature: 75 F (24 C)
Dew Point: 73 F (23 C)
Relative Humidity: 94%
Pressure (altimeter): 29.77 in. Hg (1008 hPa)
ob: SANE 151025Z 27003KT 8000 BR BKN060 24/23 Q1008
cycle: 10

Station Type Date Time Source
SANE TAF 2020/01/27 00:36 UTC NOAA

TAF TAF SANE 272300Z 2800/2824 18015KT 9999 SCT035 FEW040TCU TX37/2820Z TN23/2810Z
BECMG 2802/2804 36005KT 9999 NSW SCT025

Example: see airport list